Time;durP1;ratioP1;P1;durP2;ratioP2;P2;SDS_P1;SDS_P2;PMS_P1;PMS_P2;Temp;Humidity;BMP_temperature;BMP_pressure;BME280_temperature;BME280_humidity;BME280_pressure;Samples;Min_cycle;Max_cycle;Signal;HPM_P1;HPM_P2
2022/12/16 00:00:02;;;;;;;;;;;;;;;17.36;47.47;101021.09;4998576;28;1187;-55
2022/12/16 00:02:30;;;;;;;;;;;;;;;17.18;47.36;101012.28;4998842;28;1305;-55
2022/12/16 00:04:56;;;;;;;;;;;;;;;17.77;47.53;101013.69;4997660;28;1006;-55
2022/12/16 00:07:22;;;;;;;;;;;;;;;17.02;47.75;101000.44;4992538;28;1152;-54
2022/12/16 00:09:47;;;;;;;;;;;;;;;18.08;47.37;101008.19;4991461;28;1188;-52
2022/12/16 00:12:12;;;;;;;;;;;;;;;17.39;47.71;101006.81;4998734;28;1129;-54
2022/12/16 00:14:38;;;;;;;;;;;;;;;16.93;47.38;101008.38;4998695;28;2478;-54
2022/12/16 00:17:03;;;;;;;;;;;;;;;17.67;47.56;100999.97;4998584;28;1148;-52
2022/12/16 00:19:30;;;;;;;;;;;;;;;17.00;47.70;101001.78;4998655;28;1124;-54
2022/12/16 00:21:56;;;;;;;;;;;;;;;18.73;45.83;101010.22;4998567;28;1211;-53
2022/12/16 00:24:21;;;;;;;;;;;;;;;17.82;47.25;101014.81;4998535;28;1182;-54
2022/12/16 00:26:47;;;;;;;;;;;;;;;17.11;47.46;101003.50;4998845;28;1105;-54
2022/12/16 00:29:12;;;;;;;;;;;;;;;17.55;47.83;100996.66;4998289;28;1360;-54
2022/12/16 00:31:38;;;;;;;;;;;;;;;17.73;47.32;100996.09;4998228;28;1101;-53
2022/12/16 00:34:03;;;;;;;;;;;;;;;17.15;47.65;100990.84;4998231;28;1977;-54
2022/12/16 00:36:28;;;;;;;;;;;;;;;16.85;46.73;100989.63;4998039;28;1145;-54
2022/12/16 00:38:54;;;;;;;;;;;;;;;18.35;46.72;100985.00;4998493;28;1101;-54
2022/12/16 00:41:19;;;;;;;;;;;;;;;17.19;48.10;100969.13;4997586;28;1117;-53
2022/12/16 00:43:45;;;;;;;;;;;;;;;17.95;47.45;100962.00;4997757;28;1093;-52
2022/12/16 00:46:11;;;;;;;;;;;;;;;18.07;47.07;100956.19;4997660;28;2400;-55
2022/12/16 00:48:36;;;;;;;;;;;;;;;17.29;47.45;100952.66;4991998;28;1236;-54
2022/12/16 00:51:02;;;;;;;;;;;;;;;17.52;48.34;100956.78;4989936;28;1219;-54
2022/12/16 00:53:27;;;;;;;;;;;;;;;17.25;48.44;100957.03;4997760;28;1910;-54
2022/12/16 00:56:06;;;;;;;;;;;;;;;16.98;47.47;100963.59;4998041;28;1121;-53
2022/12/16 00:58:31;;;;;;;;;;;;;;;16.96;47.98;100946.59;4997606;28;1140;-51
2022/12/16 01:00:57;;;;;;;;;;;;;;;17.66;47.69;100943.31;4998149;28;1153;-52
2022/12/16 01:03:22;;;;;;;;;;;;;;;17.04;47.82;100947.94;4997849;28;1109;-52
2022/12/16 01:05:48;;;;;;;;;;;;;;;18.63;46.27;100941.38;4990015;28;893;-54
2022/12/16 01:08:13;;;;;;;;;;;;;;;17.48;47.70;100949.38;4991084;28;1191;-55
2022/12/16 01:10:39;;;;;;;;;;;;;;;17.12;47.46;100947.41;4997417;28;1247;-52
2022/12/16 01:13:04;;;;;;;;;;;;;;;18.13;47.17;100947.66;4997221;28;1883;-53
2022/12/16 01:15:30;;;;;;;;;;;;;;;17.20;48.13;100943.31;4997097;28;2356;-54
2022/12/16 01:17:55;;;;;;;;;;;;;;;17.34;47.88;100947.16;4996977;28;867;-54
2022/12/16 01:20:20;;;;;;;;;;;;;;;17.45;48.10;100940.56;4997569;28;1389;-53
2022/12/16 01:22:46;;;;;;;;;;;;;;;16.87;48.17;100927.03;4997470;28;1164;-55
2022/12/16 01:25:14;;;;;;;;;;;;;;;18.84;45.70;100927.50;4997251;28;1152;-54
2022/12/16 01:27:39;;;;;;;;;;;;;;;17.47;47.65;100942.22;4997088;28;1200;-51
2022/12/16 01:30:05;;;;;;;;;;;;;;;17.00;47.33;100939.44;4997128;28;863;-54
2022/12/16 01:32:30;;;;;;;;;;;;;;;16.86;47.13;100954.78;4997226;28;1980;-52
2022/12/16 01:34:56;;;;;;;;;;;;;;;17.87;47.30;100952.34;4997569;28;1251;-55
2022/12/16 01:37:22;;;;;;;;;;;;;;;17.06;47.71;100943.84;4997038;28;1161;-53
2022/12/16 01:39:47;;;;;;;;;;;;;;;17.94;47.35;100947.41;4997272;28;1136;-55
2022/12/16 01:42:14;;;;;;;;;;;;;;;17.40;48.05;100954.31;4996465;28;906;-54
2022/12/16 01:44:42;;;;;;;;;;;;;;;17.23;48.53;100951.00;4996957;28;1868;-55
2022/12/16 01:47:08;;;;;;;;;;;;;;;18.53;46.30;100953.25;4997253;28;1152;-54
2022/12/16 01:49:38;;;;;;;;;;;;;;;17.36;47.67;100947.72;4979797;28;1144;-53
2022/12/16 01:52:04;;;;;;;;;;;;;;;17.60;48.12;100947.19;4979826;28;1156;-48
2022/12/16 01:54:32;;;;;;;;;;;;;;;17.53;47.85;100949.34;4996501;28;1914;-53
2022/12/16 01:56:59;;;;;;;;;;;;;;;17.04;47.35;100943.31;4979316;28;1173;-53
2022/12/16 01:59:25;;;;;;;;;;;;;;;18.08;47.21;100942.16;4979356;28;1212;-54
2022/12/16 02:01:50;;;;;;;;;;;;;;;17.26;48.00;100942.22;4997221;28;1069;-56
2022/12/16 02:04:16;;;;;;;;;;;;;;;17.90;47.86;100946.28;4996879;28;1192;-56
2022/12/16 02:06:41;;;;;;;;;;;;;;;18.40;46.05;100938.19;4996460;28;1120;-56
2022/12/16 02:09:07;;;;;;;;;;;;;;;17.31;47.65;100944.16;4996856;28;1195;-56
2022/12/16 02:11:42;;;;;;;;;;;;;;;18.93;45.25;100932.16;4979514;28;1154;-56
2022/12/16 02:14:10;;;;;;;;;;;;;;;17.82;47.28;100935.03;4982829;28;1906;-56
2022/12/16 02:16:35;;;;;;;;;;;;;;;17.15;47.40;100935.88;4996728;28;2674;-56
2022/12/16 02:19:09;;;;;;;;;;;;;;;17.02;46.70;100926.25;4996301;28;1169;-56
2022/12/16 02:21:54;;;;;;;;;;;;;;;16.98;46.37;100929.81;4972296;28;1152;-56
2022/12/16 02:24:25;;;;;;;;;;;;;;;17.49;47.52;100932.59;4992368;28;1126;-56
2022/12/16 02:27:20;;;;;;;;;;;;;;;16.94;47.61;100924.03;4996651;28;1105;-56
2022/12/16 02:29:48;;;;;;;;;;;;;;;18.47;46.33;100935.94;4987224;28;1417;-56
2022/12/16 02:32:18;;;;;;;;;;;;;;;17.34;47.87;100933.41;4983176;28;1183;-56
2022/12/16 02:34:49;;;;;;;;;;;;;;;17.10;47.85;100928.47;4983083;28;1902;-56
2022/12/16 02:37:24;;;;;;;;;;;;;;;17.31;47.95;100916.69;5000241;28;1089;-56
2022/12/16 02:39:52;;;;;;;;;;;;;;;17.33;48.15;100920.78;5000785;28;1125;-55
2022/12/16 02:42:36;;;;;;;;;;;;;;;18.71;45.88;100921.50;5000000;28;1172;-55
2022/12/16 02:45:05;;;;;;;;;;;;;;;17.35;47.95;100928.75;5000162;28;2246;-56
2022/12/16 02:47:31;;;;;;;;;;;;;;;17.03;47.14;100924.34;4983371;28;1133;-56
2022/12/16 02:49:57;;;;;;;;;;;;;;;17.42;47.91;100935.63;4999705;28;1195;-56
2022/12/16 02:52:23;;;;;;;;;;;;;;;17.42;47.99;100935.63;5000506;28;1101;-54
2022/12/16 02:54:51;;;;;;;;;;;;;;;16.91;47.61;100919.09;5000017;28;1906;-55
2022/12/16 02:57:22;;;;;;;;;;;;;;;17.89;47.61;100916.31;4982469;28;1149;-55
2022/12/16 02:59:50;;;;;;;;;;;;;;;17.03;48.36;100922.41;4986383;28;1180;-55
2022/12/16 03:02:19;;;;;;;;;;;;;;;18.66;46.22;100931.72;5000141;28;1191;-55
2022/12/16 03:04:51;;;;;;;;;;;;;;;18.24;46.81;100914.56;5000127;28;1437;-55
2022/12/16 03:07:17;;;;;;;;;;;;;;;17.51;47.50;100927.63;4999704;28;1109;-55
2022/12/16 03:09:42;;;;;;;;;;;;;;;19.21;44.79;100928.91;4982851;28;1250;-55
2022/12/16 03:12:09;;;;;;;;;;;;;;;17.82;47.45;100932.28;4982827;28;1176;-55
2022/12/16 03:14:34;;;;;;;;;;;;;;;17.29;47.21;100930.66;5000120;28;1910;-55
2022/12/16 03:17:00;;;;;;;;;;;;;;;18.26;46.87;100926.94;4982416;28;2609;-55
2022/12/16 03:19:25;;;;;;;;;;;;;;;17.34;47.50;100921.63;4981599;28;1089;-55
2022/12/16 03:21:56;;;;;;;;;;;;;;;17.12;47.10;100919.13;4982454;28;1098;-55
2022/12/16 03:24:21;;;;;;;;;;;;;;;18.18;47.10;100916.53;4979902;28;1137;-53
2022/12/16 03:27:07;;;;;;;;;;;;;;;17.16;48.22;100920.22;4987769;28;1013;-54
2022/12/16 03:29:38;;;;;;;;;;;;;;;18.25;47.09;100903.28;4962021;28;1251;-53
2022/12/16 03:32:05;;;;;;;;;;;;;;;17.90;47.33;100910.53;4989933;28;1163;-52
2022/12/16 03:34:51;;;;;;;;;;;;;;;17.23;47.49;100909.78;4999403;28;1911;-54
2022/12/16 03:37:16;;;;;;;;;;;;;;;18.14;47.28;100898.91;4988488;28;1811;-53
2022/12/16 03:39:46;;;;;;;;;;;;;;;17.16;48.40;100892.75;4978318;28;1165;-54
2022/12/16 03:42:12;;;;;;;;;;;;;;;18.90;45.38;100885.88;4981382;28;1107;-54
2022/12/16 03:44:38;;;;;;;;;;;;;;;18.51;46.00;100875.63;4985566;28;2231;-55
2022/12/16 03:47:03;;;;;;;;;;;;;;;17.55;47.49;100890.25;4981643;28;1132;-54
2022/12/16 03:49:29;;;;;;;;;;;;;;;17.27;46.93;100884.22;4998877;28;1180;-55
2022/12/16 03:51:55;;;;;;;;;;;;;;;18.04;46.91;100883.28;4999464;28;1144;-53
2022/12/16 03:54:20;;;;;;;;;;;;;;;17.48;47.73;100872.41;4998700;28;1981;-55
2022/12/16 03:56:46;;;;;;;;;;;;;;;17.04;47.37;100871.88;4999405;28;1144;-55
2022/12/16 03:59:12;;;;;;;;;;;;;;;18.16;47.09;100874.72;4990195;28;1156;-55
2022/12/16 04:01:38;;;;;;;;;;;;;;;17.20;47.93;100882.88;4994718;28;1062;-55
2022/12/16 04:04:04;;;;;;;;;;;;;;;16.91;47.61;100886.97;4998646;28;1046;-54
2022/12/16 04:06:29;;;;;;;;;;;;;;;17.66;47.68;100887.50;4998396;28;1227;-53
2022/12/16 04:08:54;;;;;;;;;;;;;;;17.02;48.26;100882.28;4998621;28;1140;-52
2022/12/16 04:25:05;;;;;;;;;;;;;;;17.34;48.18;100910.63;4972373;28;1090;-52
2022/12/16 04:27:31;;;;;;;;;;;;;;;17.22;48.23;100908.13;4981425;28;1169;-54
